To NAV CANADA Home Page Login to a new session Search on AWWS site Disclaimer Vers la page française équivalente Tips FAQ What's new on the site To the Forecasts and Observations / NOTAM section To "File a Flight Plan" website Publications and other links Update of the User's profile FIC Telephone Numbers My Weather Data Folder Route Weather Data Regional Weather Data Local Weather Data To the Forecasts and Observations / NOTAM section
Request Generated 05/26/2019 at 22:00:59 UTC . Weather information available at that time is displayed.


Save this request - Inactive

METAR/TAF

HAMILTON/ON    

METAR CYHM 262100Z 31010G16KT 15SM FEW045 BKN180 OVC210 21/13 A2998 RMK CU1AC4CI3 SLP152 DENSITY ALT 1700FT=
METAR CYHM 262000Z 27008G15KT 15SM FEW045 SCT180 OVC210 23/13 A2997 RMK CU1AC2CI5 SLP149 DENSITY ALT 1800FT=
METAR CYHM 261900Z 28012G18KT 260V320 15SM FEW048 FEW120 FEW190 BKN250 23/11 A2996 RMK CU1AC1AC1CI5 CU TR SLP145 DENSITY ALT 1900FT=

TAF CYHM 261738Z 2618/2718 30012KT P6SM FEW040 SCT220
FM270000 32008KT P6SM SKC
BECMG 2700/2702 02005KT
FM270900 VRB03KT 6SM BR SKC PROB30 2709/2712 11/2SM BR
FM271200 25005KT P6SM SKC
BECMG 2713/2715 31006KT
FM271700 07007KT P6SM BKN040
RMK NXT FCST BY 270000Z=

KITCHENER/WATERLOO/ON    (show WxCam)

METAR CYKF 262100Z AUTO 31012G18KT 290V360 9SM FEW180 BKN220 19/10 A3000 RMK SLP160 DENSITY ALT 1600FT=
METAR CYKF 262000Z AUTO 30011KT 270V330 9SM BKN200 20/13 A3000 RMK SLP159 DENSITY ALT 1700FT=
METAR CYKF 261900Z AUTO 32010G15KT 270V340 9SM BKN190 OVC220 20/12 A2999 RMK SLP154 DENSITY ALT 1800FT=

TAF CYKF 261938Z 2620/2708 32013KT P6SM BKN220
BECMG 2622/2624 31007KT
RMK FCST BASED ON AUTO OBS. NXT FCST BY 270200Z=

ST. CATHARINES/NIAGARA DISTRICT/ON    

METAR CYSN 262100Z 35006KT 15SM FEW035 SCT160 BKN200 22/13 A2995 RMK CU1AC2CI4 SLP143 DENSITY ALT 1200FT=
METAR CYSN 262000Z 33009KT 15SM FEW035 SCT160 BKN200 23/13 A2994 RMK CU1AC2CI3 SLP141 DENSITY ALT 1400FT=
METAR CYSN 261900Z 31012KT 15SM FEW050 BKN230 24/12 A2993 RMK CU1CI5 SLP136 DENSITY ALT 1500FT=

TAF CYSN 261939Z 2620/2701 31012KT P6SM FEW050 BKN240
BECMG 2621/2623 35007KT
RMK NXT FCST WILL BE ISSUED AT 271245Z=

TORONTO/BILLY BISHOP TORONTO CITY AIRPORT/ON    (show WxCam)

METAR CYTZ 262100Z AUTO 32006KT 290V030 9SM CLR 22/11 A2995 RMK SLP144 DENSITY ALT 1000FT=
METAR CYTZ 262000Z AUTO 35009G15KT 300V010 9SM CLR 23/12 A2995 RMK SLP143 DENSITY ALT 1100FT=
METAR CYTZ 261900Z AUTO 30003KT 270V360 9SM CLR 23/13 A2994 RMK SLP139 DENSITY ALT 1200FT=

TAF CYTZ 261938Z 2620/2720 33008KT P6SM SCT250
BECMG 2707/2709 VRB03KT
FM271800 18006KT P6SM BKN030
RMK FCST BASED ON AUTO OBS. NXT FCST BY 270200Z=

TORONTO/LESTER B. PEARSON INTL/ON    

METAR CYYZ 262100Z 03009G16KT 340V050 15SM FEW055 SCT160 BKN240 21/11 A2996 RMK CU1AC4CS3 CU TR SLP147 DENSITY ALT 1400FT=
METAR CYYZ 262000Z 03007G16KT 15SM FEW055 FEW160 BKN250 21/12 A2996 RMK CU1AC2CS5 CU TR SLP145 DENSITY ALT 1400FT=
METAR CYYZ 261900Z 34007G16KT 310V050 15SM FEW055 SCT170 BKN250 22/13 A2995 RMK CU1AC3CS3 SLP143 DENSITY ALT 1500FT=

TAF CYYZ 262038Z 2621/2724 03012KT P6SM FEW050 FEW160 BKN250
FM270000 36012KT P6SM FEW030
BECMG 2708/2710 33007KT
FM271400 01008KT P6SM FEW020
FM271800 36010KT P6SM BKN030
RMK NXT FCST BY 270000Z=

BORDEN/ON    

METAR CYBN 262100Z AUTO 33007KT 300V360 9SM CLR 18/10 A2999 RMK SLP156=
METAR CYBN 262000Z AUTO 36008KT 320V020 9SM CLR 18/09 A2999 RMK SLP156=
METAR CYBN 261900Z AUTO 35009G17KT 330V030 9SM CLR 19/09 A2999 RMK SLP154=

*** REMARK        : Forecast period has ended; this was the last TAF issued
*** REMARQUE : La période de prévision est échue; ceci était le dernier TAF qui a été émis
TAF AMD CYBN 242201Z 2418/2506 FCST CNCLD DUE END OF FLYING PROGRAM
RMK NXT FCST WILL BE ISSUED AT 271015Z=

TORONTO/BUTTONVILLE MUNICIPAL/ON    

LWIS CYKZ 262100Z AUTO 35014G19KT 20/09 A2997=
LWIS CYKZ 262000Z AUTO 35012G18KT 20/10 A2997=
LWIS CYKZ 261900Z AUTO 35015KT 21/11 A2997=

CYKZ - No TAF is issued for this station

TORONTO/OSHAWA EXECUTIVE AIRPORT/ON    (show WxCam)

METAR CYOO 262100Z AUTO 31012G19KT 9SM SCT240 21/09 A2995 RMK SLP145 DENSITY ALT 1100FT=
METAR CYOO 262000Z AUTO 31016G22KT 9SM SCT230 21/08 A2995 RMK SLP145 DENSITY ALT 1200FT=
METAR CYOO 261900Z AUTO 31012G22KT 9SM SCT220 22/10 A2995 RMK SLP144 DENSITY ALT 1200FT=

TAF CYOO 261938Z 2620/2708 31012G22KT P6SM FEW250
BECMG 2622/2624 33008KT
RMK FCST BASED ON AUTO OBS. NXT FCST BY 270200Z=

PETERBOROUGH/ON    (show WxCam)

METAR CYPQ 262100Z AUTO 31009KT 9SM FEW170 20/12 A2994 RMK SLP139 DENSITY ALT 1300FT=
METAR CYPQ 262000Z AUTO 31017KT 9SM SCT230 21/12 A2994 RMK SLP139 DENSITY ALT 1400FT=
METAR CYPQ 261900Z AUTO 29013G19KT 9SM FEW230 21/12 A2994 RMK SLP141 DENSITY ALT 1400FT=

TAF CYPQ 261938Z 2620/2702 29010G20KT P6SM FEW030
BECMG 2700/2702 31007KT
RMK FCST BASED ON AUTO OBS. NXT FCST WILL BE ISSUED AT 270945Z=

TRENTON/ON    

METAR CYTR 262100Z 28010KT 15SM FEW040 FEW200 BKN250 23/12 A2990 RMK SC1CI1CS6 HALO SLP126=
METAR CYTR 262000Z 29010KT 15SM FEW040 OVC250 23/11 A2991 RMK SC1CI8 SC TR SLP128=
METAR CYTR 261900Z 30011G17KT 15SM FEW040 BKN250 23/12 A2990 RMK CF1CI7 CUFRA TR SLP127=

TAF CYTR 261730Z 2618/2718 30012KT P6SM SCT040 BKN220
BECMG 2622/2624 30005KT
FM271200 02008KT P6SM BKN040
RMK NXT FCST BY 270000Z=

KINGSTON/ON    

METAR CYGK 262200Z 29008KT 15SM FEW062 FEW160 BKN200 23/11 A2988 RMK CU1AS1CI5 SLP120 DENSITY ALT 1400FT=
METAR CYGK 262100Z 31008KT 15SM FEW060 BKN200 23/11 A2988 RMK CU1CI6 SLP120 DENSITY ALT 1400FT=
METAR CYGK 262000Z 28006KT 230V340 15SM FEW060 BKN200 24/11 A2988 RMK SC2CI5 SLP120 DENSITY ALT 1500FT=

TAF CYGK 261938Z 2620/2703 30010KT P6SM FEW060
BECMG 2623/2701 34007KT
RMK NXT FCST WILL BE ISSUED AT 271145Z=

OTTAWA/GATINEAU/QC    

METAR CYND 262100Z 31009G15KT 270V010 15SM FEW060 SCT220 22/10 A2987 RMK CU2CI1 SLP116 DENSITY ALT 1200FT=
METAR CYND 262000Z 28010G18KT 15SM FEW055 SCT240 23/12 A2986 RMK CU2CI2 SLP115 DENSITY ALT 1300FT=
METAR CYND 261900Z 30013G21KT 15SM SCT054 BKN240 22/11 A2986 RMK CU4CI2 SLP113 DENSITY ALT 1200FT=

TAF CYND 261738Z 2618/2701 30012G22KT P6SM BKN050 TEMPO 2618/2623
SCT050
FM262300 32010KT P6SM SCT050
BECMG 2623/2701 31007KT
RMK NXT FCST WILL BE ISSUED AT 271245Z=

OTTAWA/MACDONALD-CARTIER INTL/ON    

METAR CYOW 262100Z 28013KT 15SM SCT050 22/11 A2988 RMK CU3 SLP121 DENSITY ALT 1400FT=
METAR CYOW 262000Z 27015KT 15SM BKN045 BKN230 22/12 A2988 RMK CU5CI1 CI TR SLP122 DENSITY ALT 1400FT=
METAR CYOW 261900Z 28015KT 15SM BKN047 BKN240 22/11 A2987 RMK CU5CI2 SLP118 DENSITY ALT 1400FT=

TAF CYOW 262038Z 2621/2718 27015G25KT P6SM SCT040 BKN240 TEMPO
2621/2623 BKN040 BKN240
FM262300 30012G22KT P6SM SCT050
BECMG 2623/2701 31010KT
FM271000 33008KT P6SM BKN030
FM271600 33005KT P6SM FEW040
BECMG 2716/2718 33010KT
RMK NXT FCST BY 270000Z=

MONTREAL INTL (MIRABEL)/QC    

METAR CYMX 262100Z 33008KT 240V340 45SM FEW062 SCT250 23/11 A2982 RMK CU2CI2 SLP099 DENSITY ALT 1500FT=
METAR CYMX 262000Z 33013KT 280V350 45SM SCT060 BKN250 23/11 A2981 RMK CU3CI2 SLP096 DENSITY ALT 1400FT=
METAR CYMX 261900Z 31008G18KT 210V340 45SM SCT050 BKN060 BKN250 23/11 A2981 RMK CU4SC1CI2 SLP096 DENSITY ALT 1400FT=

TAF CYMX 261738Z 2618/2718 29008G18KT P6SM BKN040 TEMPO 2618/2622
SCT040
FM262200 30010G20KT P6SM SCT050
BECMG 2622/2624 31007KT
FM271100 33006KT P6SM BKN050
FM271700 30007KT P6SM FEW050
RMK NXT FCST BY 270000Z=

MONTREAL/ST-HUBERT/QC    (show WxCam)

METAR CYHU 262100Z AUTO 31011G19KT 9SM FEW070 23/11 A2980 RMK SLP092 DENSITY ALT 1100FT=
METAR CYHU 262000Z AUTO 30012KT 260V320 9SM FEW080 23/12 A2979 RMK SLP089 DENSITY ALT 1100FT=
METAR CYHU 261900Z AUTO 29009KT 9SM SCT055 BKN083 23/13 A2979 RMK SLP090 DENSITY ALT 1100FT=

TAF CYHU 261738Z 2618/2718 28015G25KT P6SM BKN040 TEMPO 2618/2622
SCT040
FM262200 27012G22KT P6SM SCT050
BECMG 2622/2624 30010KT
FM271200 34010KT P6SM BKN040
FM271700 28010KT P6SM FEW050
RMK FCST BASED ON AUTO OBS. NXT FCST BY 270000Z=

MONTREAL/PIERRE-ELLIOTT-TRUDEAU INTL/QC    

METAR CYUL 262100Z 27015KT 250V330 30SM FEW060 BKN250 24/10 A2981 RMK CU1CI4 SLP096 DENSITY ALT 1400FT=
METAR CYUL 262000Z 26010G18KT 30SM SCT055 BKN250 24/12 A2980 RMK CU3CI4 SLP094 DENSITY ALT 1400FT=
METAR CYUL 261900Z 26013G20KT 30SM SCT052 SCT080 BKN250 24/12 A2980 RMK CU4AC1CI2 AC TR SLP094 DENSITY ALT 1300FT=

TAF CYUL 262038Z 2621/2718 27012G22KT P6SM SCT050
BECMG 2623/2701 32010KT
FM271200 36010KT P6SM BKN040
FM271700 28010KT P6SM FEW050
RMK NXT FCST BY 270000Z=


Your time UTC time
Weather data provided by Environment Canada and NAV CANADA